sensor_id;sensor_type;location;lat;lon;timestamp;P1;durP1;ratioP1;P2;durP2;ratioP2
20908;SDS011;10614;53.198;6.570;2022-11-20T00:00:47;14.38;;;6.03;;
20908;SDS011;10614;53.198;6.570;2022-11-20T00:02:49;11.10;;;5.28;;
20908;SDS011;10614;53.198;6.570;2022-11-20T00:04:51;9.63;;;5.45;;
20908;SDS011;10614;53.198;6.570;2022-11-20T00:06:53;14.23;;;6.03;;
20908;SDS011;10614;53.198;6.570;2022-11-20T00:08:55;11.18;;;5.07;;
20908;SDS011;10614;53.198;6.570;2022-11-20T00:11:01;13.75;;;5.72;;
20908;SDS011;10614;53.198;6.570;2022-11-20T00:13:06;12.23;;;5.13;;
20908;SDS011;10614;53.198;6.570;2022-11-20T00:15:09;13.15;;;5.07;;
20908;SDS011;10614;53.198;6.570;2022-11-20T00:17:11;11.98;;;5.50;;
20908;SDS011;10614;53.198;6.570;2022-11-20T00:19:12;14.05;;;5.18;;
20908;SDS011;10614;53.198;6.570;2022-11-20T00:21:14;14.15;;;5.85;;
20908;SDS011;10614;53.198;6.570;2022-11-20T00:23:18;13.60;;;6.22;;
20908;SDS011;10614;53.198;6.570;2022-11-20T00:25:20;14.50;;;5.97;;
20908;SDS011;10614;53.198;6.570;2022-11-20T00:27:22;14.13;;;6.00;;
20908;SDS011;10614;53.198;6.570;2022-11-20T00:29:25;12.95;;;5.93;;
20908;SDS011;10614;53.198;6.570;2022-11-20T00:31:26;12.38;;;6.35;;
20908;SDS011;10614;53.198;6.570;2022-11-20T00:33:29;12.63;;;5.65;;
20908;SDS011;10614;53.198;6.570;2022-11-20T00:35:31;10.27;;;5.47;;
20908;SDS011;10614;53.198;6.570;2022-11-20T00:37:32;12.98;;;5.50;;
20908;SDS011;10614;53.198;6.570;2022-11-20T00:39:34;12.82;;;5.65;;
20908;SDS011;10614;53.198;6.570;2022-11-20T00:41:35;13.15;;;6.75;;
20908;SDS011;10614;53.198;6.570;2022-11-20T00:43:37;11.27;;;5.35;;
20908;SDS011;10614;53.198;6.570;2022-11-20T00:45:40;12.07;;;5.60;;
20908;SDS011;10614;53.198;6.570;2022-11-20T00:47:42;13.13;;;5.45;;
20908;SDS011;10614;53.198;6.570;2022-11-20T00:49:44;14.02;;;6.03;;
20908;SDS011;10614;53.198;6.570;2022-11-20T00:51:45;14.95;;;6.03;;
20908;SDS011;10614;53.198;6.570;2022-11-20T00:53:47;12.73;;;5.70;;
20908;SDS011;10614;53.198;6.570;2022-11-20T00:55:52;11.65;;;5.47;;
20908;SDS011;10614;53.198;6.570;2022-11-20T00:57:55;12.63;;;5.63;;
20908;SDS011;10614;53.198;6.570;2022-11-20T00:59:57;9.10;;;4.78;;
20908;SDS011;10614;53.198;6.570;2022-11-20T01:02:00;11.27;;;5.28;;
20908;SDS011;10614;53.198;6.570;2022-11-20T01:04:02;12.73;;;5.38;;
20908;SDS011;10614;53.198;6.570;2022-11-20T01:06:05;13.38;;;5.55;;
20908;SDS011;10614;53.198;6.570;2022-11-20T01:08:07;13.82;;;5.90;;
20908;SDS011;10614;53.198;6.570;2022-11-20T01:10:09;13.95;;;5.85;;
20908;SDS011;10614;53.198;6.570;2022-11-20T01:12:10;10.40;;;5.13;;
20908;SDS011;10614;53.198;6.570;2022-11-20T01:14:13;14.02;;;5.90;;
20908;SDS011;10614;53.198;6.570;2022-11-20T01:16:16;11.98;;;5.18;;
20908;SDS011;10614;53.198;6.570;2022-11-20T01:18:21;15.97;;;5.57;;
20908;SDS011;10614;53.198;6.570;2022-11-20T01:20:23;13.15;;;5.70;;
20908;SDS011;10614;53.198;6.570;2022-11-20T01:22:24;13.68;;;6.00;;
20908;SDS011;10614;53.198;6.570;2022-11-20T01:24:26;14.27;;;6.18;;
20908;SDS011;10614;53.198;6.570;2022-11-20T01:26:29;14.23;;;6.40;;
20908;SDS011;10614;53.198;6.570;2022-11-20T01:28:31;13.00;;;6.72;;
20908;SDS011;10614;53.198;6.570;2022-11-20T01:30:34;12.93;;;6.40;;
20908;SDS011;10614;53.198;6.570;2022-11-20T01:32:36;14.05;;;6.05;;
20908;SDS011;10614;53.198;6.570;2022-11-20T01:34:39;14.52;;;6.00;;
20908;SDS011;10614;53.198;6.570;2022-11-20T01:36:41;12.63;;;5.65;;
20908;SDS011;10614;53.198;6.570;2022-11-20T01:38:43;10.95;;;5.80;;
20908;SDS011;10614;53.198;6.570;2022-11-20T01:40:45;12.98;;;5.88;;
20908;SDS011;10614;53.198;6.570;2022-11-20T01:42:47;13.32;;;5.70;;
20908;SDS011;10614;53.198;6.570;2022-11-20T01:47:54;13.23;;;5.82;;
20908;SDS011;10614;53.198;6.570;2022-11-20T01:49:58;12.85;;;5.68;;
20908;SDS011;10614;53.198;6.570;2022-11-20T01:52:07;13.63;;;5.53;;
20908;SDS011;10614;53.198;6.570;2022-11-20T01:54:17;10.40;;;5.40;;
20908;SDS011;10614;53.198;6.570;2022-11-20T01:56:23;14.77;;;5.75;;
20908;SDS011;10614;53.198;6.570;2022-11-20T01:58:27;11.23;;;5.43;;
20908;SDS011;10614;53.198;6.570;2022-11-20T02:00:33;11.63;;;5.72;;
20908;SDS011;10614;53.198;6.570;2022-11-20T02:02:35;15.57;;;6.00;;
20908;SDS011;10614;53.198;6.570;2022-11-20T02:04:37;14.57;;;6.15;;
20908;SDS011;10614;53.198;6.570;2022-11-20T02:06:42;10.35;;;5.05;;
20908;SDS011;10614;53.198;6.570;2022-11-20T02:08:45;14.32;;;5.28;;
20908;SDS011;10614;53.198;6.570;2022-11-20T02:10:47;14.52;;;5.90;;
20908;SDS011;10614;53.198;6.570;2022-11-20T02:12:49;13.70;;;6.00;;
20908;SDS011;10614;53.198;6.570;2022-11-20T02:15:09;13.50;;;6.20;;
20908;SDS011;10614;53.198;6.570;2022-11-20T02:17:11;12.63;;;5.85;;
20908;SDS011;10614;53.198;6.570;2022-11-20T02:19:14;10.93;;;5.03;;
20908;SDS011;10614;53.198;6.570;2022-11-20T02:21:24;14.00;;;6.15;;
20908;SDS011;10614;53.198;6.570;2022-11-20T02:23:38;13.65;;;6.40;;
20908;SDS011;10614;53.198;6.570;2022-11-20T02:25:42;11.02;;;5.38;;
20908;SDS011;10614;53.198;6.570;2022-11-20T02:27:45;12.45;;;5.72;;
20908;SDS011;10614;53.198;6.570;2022-11-20T02:29:48;12.05;;;5.60;;
20908;SDS011;10614;53.198;6.570;2022-11-20T02:31:53;15.27;;;6.22;;
20908;SDS011;10614;53.198;6.570;2022-11-20T02:33:56;14.85;;;6.40;;
20908;SDS011;10614;53.198;6.570;2022-11-20T02:35:59;13.70;;;6.57;;
20908;SDS011;10614;53.198;6.570;2022-11-20T02:38:01;13.43;;;6.65;;
20908;SDS011;10614;53.198;6.570;2022-11-20T02:40:04;13.52;;;6.40;;
20908;SDS011;10614;53.198;6.570;2022-11-20T02:42:07;13.45;;;6.22;;
20908;SDS011;10614;53.198;6.570;2022-11-20T02:44:09;13.45;;;6.40;;
20908;SDS011;10614;53.198;6.570;2022-11-20T02:46:11;14.20;;;6.15;;
20908;SDS011;10614;53.198;6.570;2022-11-20T02:48:12;13.60;;;6.03;;
20908;SDS011;10614;53.198;6.570;2022-11-20T02:50:14;12.48;;;5.82;;
20908;SDS011;10614;53.198;6.570;2022-11-20T02:52:17;12.80;;;5.53;;
20908;SDS011;10614;53.198;6.570;2022-11-20T02:54:19;13.07;;;5.78;;
20908;SDS011;10614;53.198;6.570;2022-11-20T02:56:20;11.35;;;5.97;;
20908;SDS011;10614;53.198;6.570;2022-11-20T02:58:23;11.07;;;5.50;;
20908;SDS011;10614;53.198;6.570;2022-11-20T03:00:25;13.18;;;6.07;;
20908;SDS011;10614;53.198;6.570;2022-11-20T03:02:29;11.02;;;5.55;;
20908;SDS011;10614;53.198;6.570;2022-11-20T03:04:31;9.50;;;4.70;;
20908;SDS011;10614;53.198;6.570;2022-11-20T03:06:32;12.32;;;5.65;;
20908;SDS011;10614;53.198;6.570;2022-11-20T03:08:34;11.55;;;4.90;;
20908;SDS011;10614;53.198;6.570;2022-11-20T03:10:36;12.43;;;6.10;;
20908;SDS011;10614;53.198;6.570;2022-11-20T03:12:38;12.93;;;5.45;;
20908;SDS011;10614;53.198;6.570;2022-11-20T03:14:40;12.55;;;5.75;;
20908;SDS011;10614;53.198;6.570;2022-11-20T03:16:42;11.27;;;5.72;;
20908;SDS011;10614;53.198;6.570;2022-11-20T03:18:44;14.93;;;6.10;;
20908;SDS011;10614;53.198;6.570;2022-11-20T03:20:46;13.07;;;5.97;;
20908;SDS011;10614;53.198;6.570;2022-11-20T03:22:48;13.65;;;6.00;;
20908;SDS011;10614;53.198;6.570;2022-11-20T03:24:50;12.38;;;5.22;;
20908;SDS011;10614;53.198;6.570;2022-11-20T03:26:52;10.70;;;4.93;;
20908;SDS011;10614;53.198;6.570;2022-11-20T03:28:54;12.05;;;5.85;;
20908;SDS011;10614;53.198;6.570;2022-11-20T03:30:59;10.95;;;5.38;;
20908;SDS011;10614;53.198;6.570;2022-11-20T03:33:06;11.80;;;5.85;;
20908;SDS011;10614;53.198;6.570;2022-11-20T03:35:08;12.10;;;5.57;;
20908;SDS011;10614;53.198;6.570;2022-11-20T03:37:10;11.80;;;5.50;;
20908;SDS011;10614;53.198;6.570;2022-11-20T03:39:12;11.50;;;5.32;;
20908;SDS011;10614;53.198;6.570;2022-11-20T03:41:15;13.52;;;5.68;;
20908;SDS011;10614;53.198;6.570;2022-11-20T03:43:19;11.23;;;5.63;;
20908;SDS011;10614;53.198;6.570;2022-11-20T03:45:21;15.50;;;6.50;;
20908;SDS011;10614;53.198;6.570;2022-11-20T03:47:24;10.90;;;5.57;;
20908;SDS011;10614;53.198;6.570;2022-11-20T03:49:25;14.65;;;5.47;;
20908;SDS011;10614;53.198;6.570;2022-11-20T03:51:28;12.75;;;5.47;;
20908;SDS011;10614;53.198;6.570;2022-11-20T03:53:31;16.27;;;5.38;;
20908;SDS011;10614;53.198;6.570;2022-11-20T03:55:32;10.23;;;5.15;;
20908;SDS011;10614;53.198;6.570;2022-11-20T03:57:34;12.30;;;5.60;;
20908;SDS011;10614;53.198;6.570;2022-11-20T03:59:35;12.05;;;5.05;;
20908;SDS011;10614;53.198;6.570;2022-11-20T04:01:37;9.45;;;4.38;;
20908;SDS011;10614;53.198;6.570;2022-11-20T04:03:40;10.73;;;4.93;;
20908;SDS011;10614;53.198;6.570;2022-11-20T04:05:43;11.32;;;5.10;;
20908;SDS011;10614;53.198;6.570;2022-11-20T04:07:45;8.75;;;4.55;;
20908;SDS011;10614;53.198;6.570;2022-11-20T04:09:47;9.23;;;4.47;;
20908;SDS011;10614;53.198;6.570;2022-11-20T04:11:48;9.85;;;4.43;;
20908;SDS011;10614;53.198;6.570;2022-11-20T04:13:51;10.32;;;4.50;;
20908;SDS011;10614;53.198;6.570;2022-11-20T04:15:56;10.57;;;4.07;;
20908;SDS011;10614;53.198;6.570;2022-11-20T04:17:58;11.40;;;4.78;;
20908;SDS011;10614;53.198;6.570;2022-11-20T04:20:02;10.52;;;4.88;;
20908;SDS011;10614;53.198;6.570;2022-11-20T04:22:04;11.67;;;5.17;;
20908;SDS011;10614;53.198;6.570;2022-11-20T04:24:06;9.02;;;4.55;;
20908;SDS011;10614;53.198;6.570;2022-11-20T04:26:09;12.63;;;4.88;;
20908;SDS011;10614;53.198;6.570;2022-11-20T04:28:12;11.88;;;5.30;;
20908;SDS011;10614;53.198;6.570;2022-11-20T04:30:13;9.63;;;4.40;;
20908;SDS011;10614;53.198;6.570;2022-11-20T04:32:15;9.07;;;4.90;;
20908;SDS011;10614;53.198;6.570;2022-11-20T04:34:17;9.68;;;4.75;;
20908;SDS011;10614;53.198;6.570;2022-11-20T04:36:20;8.93;;;4.20;;
20908;SDS011;10614;53.198;6.570;2022-11-20T04:38:23;11.77;;;5.22;;
20908;SDS011;10614;53.198;6.570;2022-11-20T04:40:24;12.32;;;4.97;;
20908;SDS011;10614;53.198;6.570;2022-11-20T04:42:26;9.48;;;4.50;;
20908;SDS011;10614;53.198;6.570;2022-11-20T04:44:30;9.07;;;4.55;;
20908;SDS011;10614;53.198;6.570;2022-11-20T04:46:33;9.07;;;4.03;;
20908;SDS011;10614;53.198;6.570;2022-11-20T04:48:36;9.13;;;4.13;;
20908;SDS011;10614;53.198;6.570;2022-11-20T04:50:39;10.10;;;4.43;;
20908;SDS011;10614;53.198;6.570;2022-11-20T04:52:42;10.25;;;4.65;;
20908;SDS011;10614;53.198;6.570;2022-11-20T04:54:44;9.45;;;4.53;;
20908;SDS011;10614;53.198;6.570;2022-11-20T04:56:46;9.45;;;4.25;;
20908;SDS011;10614;53.198;6.570;2022-11-20T04:58:48;10.40;;;4.60;;
20908;SDS011;10614;53.198;6.570;2022-11-20T05:00:50;10.65;;;4.00;;
20908;SDS011;10614;53.198;6.570;2022-11-20T05:02:52;8.85;;;4.15;;
20908;SDS011;10614;53.198;6.570;2022-11-20T05:04:53;10.27;;;3.75;;
20908;SDS011;10614;53.198;6.570;2022-11-20T05:06:55;8.70;;;4.72;;
20908;SDS011;10614;53.198;6.570;2022-11-20T05:08:58;9.13;;;4.07;;
20908;SDS011;10614;53.198;6.570;2022-11-20T05:11:01;8.80;;;3.38;;
20908;SDS011;10614;53.198;6.570;2022-11-20T05:13:03;11.48;;;5.05;;
20908;SDS011;10614;53.198;6.570;2022-11-20T05:15:05;10.13;;;4.07;;
20908;SDS011;10614;53.198;6.570;2022-11-20T05:17:09;11.20;;;4.55;;
20908;SDS011;10614;53.198;6.570;2022-11-20T05:19:11;10.90;;;3.92;;
20908;SDS011;10614;53.198;6.570;2022-11-20T05:21:13;10.75;;;4.90;;
20908;SDS011;10614;53.198;6.570;2022-11-20T05:23:15;8.45;;;4.07;;
20908;SDS011;10614;53.198;6.570;2022-11-20T05:25:18;8.30;;;4.07;;
20908;SDS011;10614;53.198;6.570;2022-11-20T05:27:20;9.60;;;3.75;;
20908;SDS011;10614;53.198;6.570;2022-11-20T05:29:22;8.77;;;3.65;;
20908;SDS011;10614;53.198;6.570;2022-11-20T05:31:24;12.05;;;4.25;;
20908;SDS011;10614;53.198;6.570;2022-11-20T05:33:26;8.60;;;4.15;;
20908;SDS011;10614;53.198;6.570;2022-11-20T05:35:27;9.35;;;4.45;;
20908;SDS011;10614;53.198;6.570;2022-11-20T05:37:29;7.78;;;3.90;;
20908;SDS011;10614;53.198;6.570;2022-11-20T05:39:30;8.70;;;3.90;;
20908;SDS011;10614;53.198;6.570;2022-11-20T05:41:33;9.77;;;4.40;;
20908;SDS011;10614;53.198;6.570;2022-11-20T05:43:35;8.25;;;3.90;;
20908;SDS011;10614;53.198;6.570;2022-11-20T05:45:38;9.95;;;4.35;;
20908;SDS011;10614;53.198;6.570;2022-11-20T05:47:40;12.07;;;4.57;;
20908;SDS011;10614;53.198;6.570;2022-11-20T05:49:41;7.50;;;3.53;;
20908;SDS011;10614;53.198;6.570;2022-11-20T05:51:43;9.15;;;4.38;;
20908;SDS011;10614;53.198;6.570;2022-11-20T05:53:45;7.25;;;3.45;;
20908;SDS011;10614;53.198;6.570;2022-11-20T05:55:55;7.53;;;3.67;;
20908;SDS011;10614;53.198;6.570;2022-11-20T05:57:58;10.23;;;3.78;;
20908;SDS011;10614;53.198;6.570;2022-11-20T06:00:00;8.35;;;3.88;;
20908;SDS011;10614;53.198;6.570;2022-11-20T06:02:02;11.45;;;4.47;;
20908;SDS011;10614;53.198;6.570;2022-11-20T06:04:04;9.05;;;3.60;;
20908;SDS011;10614;53.198;6.570;2022-11-20T06:06:05;11.82;;;5.18;;
20908;SDS011;10614;53.198;6.570;2022-11-20T06:08:08;10.15;;;4.35;;
20908;SDS011;10614;53.198;6.570;2022-11-20T06:10:09;10.32;;;4.40;;
20908;SDS011;10614;53.198;6.570;2022-11-20T06:12:11;10.55;;;4.75;;
20908;SDS011;10614;53.198;6.570;2022-11-20T06:14:14;7.88;;;3.75;;
20908;SDS011;10614;53.198;6.570;2022-11-20T06:16:17;7.78;;;3.83;;
20908;SDS011;10614;53.198;6.570;2022-11-20T06:18:20;9.98;;;4.35;;
20908;SDS011;10614;53.198;6.570;2022-11-20T06:20:22;9.65;;;4.25;;
20908;SDS011;10614;53.198;6.570;2022-11-20T06:22:23;10.70;;;4.68;;
20908;SDS011;10614;53.198;6.570;2022-11-20T06:24:25;10.13;;;4.07;;
20908;SDS011;10614;53.198;6.570;2022-11-20T06:26:27;8.93;;;4.07;;
20908;SDS011;10614;53.198;6.570;2022-11-20T06:28:29;10.57;;;4.20;;
20908;SDS011;10614;53.198;6.570;2022-11-20T06:30:32;9.20;;;4.25;;
20908;SDS011;10614;53.198;6.570;2022-11-20T06:32:33;10.07;;;4.13;;
20908;SDS011;10614;53.198;6.570;2022-11-20T06:34:35;9.65;;;4.18;;
20908;SDS011;10614;53.198;6.570;2022-11-20T06:36:37;9.02;;;4.18;;
20908;SDS011;10614;53.198;6.570;2022-11-20T06:38:39;8.45;;;4.40;;
20908;SDS011;10614;53.198;6.570;2022-11-20T06:40:41;10.00;;;4.07;;
20908;SDS011;10614;53.198;6.570;2022-11-20T06:42:43;7.90;;;3.83;;
20908;SDS011;10614;53.198;6.570;2022-11-20T06:44:45;7.57;;;3.88;;
20908;SDS011;10614;53.198;6.570;2022-11-20T06:46:48;8.52;;;4.10;;
20908;SDS011;10614;53.198;6.570;2022-11-20T06:48:49;7.18;;;3.60;;
20908;SDS011;10614;53.198;6.570;2022-11-20T06:50:51;8.82;;;3.80;;
20908;SDS011;10614;53.198;6.570;2022-11-20T06:52:53;8.88;;;3.97;;
20908;SDS011;10614;53.198;6.570;2022-11-20T06:54:54;8.48;;;3.47;;
20908;SDS011;10614;53.198;6.570;2022-11-20T06:56:56;8.60;;;3.88;;
20908;SDS011;10614;53.198;6.570;2022-11-20T06:58:57;10.13;;;4.40;;
20908;SDS011;10614;53.198;6.570;2022-11-20T07:00:59;10.30;;;4.30;;
20908;SDS011;10614;53.198;6.570;2022-11-20T07:03:03;9.23;;;3.83;;
20908;SDS011;10614;53.198;6.570;2022-11-20T07:05:05;7.65;;;3.70;;
20908;SDS011;10614;53.198;6.570;2022-11-20T07:07:08;7.97;;;3.67;;
20908;SDS011;10614;53.198;6.570;2022-11-20T07:09:09;8.38;;;3.50;;
20908;SDS011;10614;53.198;6.570;2022-11-20T07:11:11;9.30;;;4.28;;
20908;SDS011;10614;53.198;6.570;2022-11-20T07:13:13;9.07;;;3.92;;
20908;SDS011;10614;53.198;6.570;2022-11-20T07:15:15;10.25;;;4.13;;
20908;SDS011;10614;53.198;6.570;2022-11-20T07:17:17;8.63;;;3.90;;
20908;SDS011;10614;53.198;6.570;2022-11-20T07:19:20;10.00;;;4.18;;
20908;SDS011;10614;53.198;6.570;2022-11-20T07:21:21;8.52;;;3.95;;
20908;SDS011;10614;53.198;6.570;2022-11-20T07:23:23;8.95;;;3.97;;
20908;SDS011;10614;53.198;6.570;2022-11-20T07:25:25;9.50;;;3.90;;
20908;SDS011;10614;53.198;6.570;2022-11-20T07:27:28;9.45;;;3.67;;
20908;SDS011;10614;53.198;6.570;2022-11-20T07:29:30;8.32;;;4.07;;
20908;SDS011;10614;53.198;6.570;2022-11-20T07:31:32;9.38;;;3.80;;
20908;SDS011;10614;53.198;6.570;2022-11-20T07:33:33;9.48;;;4.20;;
20908;SDS011;10614;53.198;6.570;2022-11-20T07:35:36;9.02;;;4.05;;
20908;SDS011;10614;53.198;6.570;2022-11-20T07:37:38;10.27;;;4.10;;
20908;SDS011;10614;53.198;6.570;2022-11-20T07:39:40;7.75;;;3.67;;
20908;SDS011;10614;53.198;6.570;2022-11-20T07:41:42;8.80;;;4.07;;
20908;SDS011;10614;53.198;6.570;2022-11-20T07:43:43;7.93;;;3.58;;
20908;SDS011;10614;53.198;6.570;2022-11-20T07:45:45;9.90;;;4.47;;
20908;SDS011;10614;53.198;6.570;2022-11-20T07:47:46;10.15;;;3.75;;
20908;SDS011;10614;53.198;6.570;2022-11-20T07:49:48;8.02;;;3.70;;
20908;SDS011;10614;53.198;6.570;2022-11-20T07:51:51;8.25;;;3.58;;
20908;SDS011;10614;53.198;6.570;2022-11-20T07:53:54;6.97;;;3.20;;
20908;SDS011;10614;53.198;6.570;2022-11-20T07:55:58;10.32;;;4.45;;
20908;SDS011;10614;53.198;6.570;2022-11-20T07:58:01;7.97;;;3.85;;
20908;SDS011;10614;53.198;6.570;2022-11-20T08:00:03;11.50;;;4.10;;
20908;SDS011;10614;53.198;6.570;2022-11-20T08:02:09;9.13;;;3.80;;
20908;SDS011;10614;53.198;6.570;2022-11-20T08:04:11;8.95;;;3.90;;
20908;SDS011;10614;53.198;6.570;2022-11-20T08:06:12;8.52;;;4.22;;
20908;SDS011;10614;53.198;6.570;2022-11-20T08:08:16;7.72;;;3.35;;
20908;SDS011;10614;53.198;6.570;2022-11-20T08:10:17;8.18;;;3.92;;
20908;SDS011;10614;53.198;6.570;2022-11-20T08:12:20;9.50;;;4.38;;
20908;SDS011;10614;53.198;6.570;2022-11-20T08:14:39;7.45;;;3.92;;
20908;SDS011;10614;53.198;6.570;2022-11-20T08:16:42;8.18;;;3.55;;
20908;SDS011;10614;53.198;6.570;2022-11-20T08:18:45;9.80;;;3.90;;
20908;SDS011;10614;53.198;6.570;2022-11-20T08:20:46;7.22;;;3.35;;
20908;SDS011;10614;53.198;6.570;2022-11-20T08:22:48;8.68;;;4.00;;
20908;SDS011;10614;53.198;6.570;2022-11-20T08:24:51;8.48;;;3.90;;
20908;SDS011;10614;53.198;6.570;2022-11-20T08:26:56;8.77;;;3.67;;
20908;SDS011;10614;53.198;6.570;2022-11-20T08:28:58;9.10;;;3.95;;
20908;SDS011;10614;53.198;6.570;2022-11-20T08:31:00;8.40;;;3.70;;
20908;SDS011;10614;53.198;6.570;2022-11-20T08:33:03;8.43;;;4.05;;
20908;SDS011;10614;53.198;6.570;2022-11-20T08:35:06;11.75;;;4.82;;
20908;SDS011;10614;53.198;6.570;2022-11-20T08:37:08;9.52;;;4.10;;
20908;SDS011;10614;53.198;6.570;2022-11-20T08:39:11;8.98;;;4.10;;
20908;SDS011;10614;53.198;6.570;2022-11-20T08:41:14;8.63;;;3.95;;
20908;SDS011;10614;53.198;6.570;2022-11-20T08:43:25;10.23;;;3.92;;
20908;SDS011;10614;53.198;6.570;2022-11-20T08:45:28;8.38;;;4.18;;
20908;SDS011;10614;53.198;6.570;2022-11-20T08:47:30;9.30;;;3.95;;
20908;SDS011;10614;53.198;6.570;2022-11-20T08:49:32;10.38;;;3.83;;
20908;SDS011;10614;53.198;6.570;2022-11-20T08:51:34;8.55;;;3.80;;
20908;SDS011;10614;53.198;6.570;2022-11-20T08:53:36;11.40;;;4.55;;
20908;SDS011;10614;53.198;6.570;2022-11-20T08:55:38;10.32;;;4.38;;
20908;SDS011;10614;53.198;6.570;2022-11-20T08:57:41;11.85;;;4.75;;
20908;SDS011;10614;53.198;6.570;2022-11-20T08:59:43;8.43;;;3.85;;
20908;SDS011;10614;53.198;6.570;2022-11-20T09:01:45;11.80;;;3.90;;
20908;SDS011;10614;53.198;6.570;2022-11-20T09:03:47;8.90;;;4.35;;
20908;SDS011;10614;53.198;6.570;2022-11-20T09:05:49;8.50;;;3.72;;
20908;SDS011;10614;53.198;6.570;2022-11-20T09:07:51;10.15;;;4.10;;
20908;SDS011;10614;53.198;6.570;2022-11-20T09:09:52;9.48;;;4.68;;
20908;SDS011;10614;53.198;6.570;2022-11-20T09:11:54;11.15;;;4.65;;
20908;SDS011;10614;53.198;6.570;2022-11-20T09:13:57;8.07;;;3.95;;
20908;SDS011;10614;53.198;6.570;2022-11-20T09:16:00;8.95;;;4.32;;
20908;SDS011;10614;53.198;6.570;2022-11-20T09:18:03;10.75;;;5.22;;
20908;SDS011;10614;53.198;6.570;2022-11-20T09:20:05;8.68;;;4.15;;
20908;SDS011;10614;53.198;6.570;2022-11-20T09:22:08;11.45;;;4.65;;
20908;SDS011;10614;53.198;6.570;2022-11-20T09:24:10;11.50;;;5.03;;
20908;SDS011;10614;53.198;6.570;2022-11-20T09:26:12;9.85;;;4.38;;
20908;SDS011;10614;53.198;6.570;2022-11-20T09:28:15;8.98;;;4.15;;
20908;SDS011;10614;53.198;6.570;2022-11-20T09:30:19;9.43;;;4.35;;
20908;SDS011;10614;53.198;6.570;2022-11-20T09:32:21;8.35;;;3.92;;
20908;SDS011;10614;53.198;6.570;2022-11-20T09:34:23;9.95;;;4.15;;
20908;SDS011;10614;53.198;6.570;2022-11-20T09:36:24;8.20;;;3.75;;
20908;SDS011;10614;53.198;6.570;2022-11-20T09:38:26;8.02;;;3.83;;
20908;SDS011;10614;53.198;6.570;2022-11-20T09:40:28;11.23;;;4.10;;
20908;SDS011;10614;53.198;6.570;2022-11-20T09:42:32;10.65;;;4.50;;
20908;SDS011;10614;53.198;6.570;2022-11-20T09:44:57;8.77;;;4.00;;
20908;SDS011;10614;53.198;6.570;2022-11-20T09:47:12;8.63;;;4.00;;
20908;SDS011;10614;53.198;6.570;2022-11-20T09:49:23;8.13;;;3.85;;
20908;SDS011;10614;53.198;6.570;2022-11-20T09:51:36;10.20;;;4.43;;
20908;SDS011;10614;53.198;6.570;2022-11-20T09:53:46;10.02;;;4.25;;
20908;SDS011;10614;53.198;6.570;2022-11-20T09:56:01;10.05;;;4.20;;
20908;SDS011;10614;53.198;6.570;2022-11-20T09:58:05;7.78;;;4.10;;
20908;SDS011;10614;53.198;6.570;2022-11-20T10:00:09;9.93;;;3.88;;
20908;SDS011;10614;53.198;6.570;2022-11-20T10:02:25;7.85;;;3.53;;
20908;SDS011;10614;53.198;6.570;2022-11-20T10:04:31;6.85;;;3.30;;
20908;SDS011;10614;53.198;6.570;2022-11-20T10:06:37;8.05;;;3.40;;
20908;SDS011;10614;53.198;6.570;2022-11-20T10:08:45;8.63;;;3.88;;
20908;SDS011;10614;53.198;6.570;2022-11-20T10:10:56;8.07;;;3.70;;
20908;SDS011;10614;53.198;6.570;2022-11-20T10:13:10;8.70;;;3.72;;
20908;SDS011;10614;53.198;6.570;2022-11-20T10:15:24;8.63;;;3.95;;
20908;SDS011;10614;53.198;6.570;2022-11-20T10:17:44;9.80;;;3.47;;
20908;SDS011;10614;53.198;6.570;2022-11-20T10:20:01;8.20;;;3.67;;
20908;SDS011;10614;53.198;6.570;2022-11-20T10:22:20;8.57;;;4.20;;
20908;SDS011;10614;53.198;6.570;2022-11-20T10:24:42;7.78;;;3.63;;
20908;SDS011;10614;53.198;6.570;2022-11-20T10:26:51;8.65;;;3.85;;
20908;SDS011;10614;53.198;6.570;2022-11-20T10:29:03;7.85;;;3.50;;
20908;SDS011;10614;53.198;6.570;2022-11-20T10:31:11;8.68;;;3.30;;
20908;SDS011;10614;53.198;6.570;2022-11-20T10:33:21;7.28;;;3.58;;
20908;SDS011;10614;53.198;6.570;2022-11-20T10:35:25;8.75;;;3.72;;
20908;SDS011;10614;53.198;6.570;2022-11-20T10:37:33;7.63;;;3.28;;
20908;SDS011;10614;53.198;6.570;2022-11-20T10:39:40;6.55;;;3.28;;
20908;SDS011;10614;53.198;6.570;2022-11-20T10:41:49;7.63;;;3.28;;
20908;SDS011;10614;53.198;6.570;2022-11-20T10:43:56;8.95;;;3.63;;
20908;SDS011;10614;53.198;6.570;2022-11-20T10:46:04;7.55;;;3.70;;
20908;SDS011;10614;53.198;6.570;2022-11-20T10:48:12;6.75;;;3.25;;
20908;SDS011;10614;53.198;6.570;2022-11-20T10:50:19;7.13;;;3.53;;
20908;SDS011;10614;53.198;6.570;2022-11-20T10:52:25;7.65;;;3.78;;
20908;SDS011;10614;53.198;6.570;2022-11-20T10:54:36;6.38;;;2.95;;
20908;SDS011;10614;53.198;6.570;2022-11-20T10:56:45;8.77;;;3.80;;
20908;SDS011;10614;53.198;6.570;2022-11-20T10:58:52;9.18;;;3.72;;
20908;SDS011;10614;53.198;6.570;2022-11-20T11:01:04;8.98;;;4.18;;
20908;SDS011;10614;53.198;6.570;2022-11-20T11:03:13;8.68;;;3.65;;
20908;SDS011;10614;53.198;6.570;2022-11-20T11:05:24;8.68;;;3.70;;
20908;SDS011;10614;53.198;6.570;2022-11-20T11:07:35;7.07;;;3.10;;
20908;SDS011;10614;53.198;6.570;2022-11-20T11:09:41;8.00;;;3.85;;
20908;SDS011;10614;53.198;6.570;2022-11-20T11:11:45;9.93;;;4.25;;
20908;SDS011;10614;53.198;6.570;2022-11-20T11:13:46;7.85;;;3.35;;
20908;SDS011;10614;53.198;6.570;2022-11-20T11:15:48;9.57;;;4.07;;
20908;SDS011;10614;53.198;6.570;2022-11-20T11:17:50;9.93;;;3.85;;
20908;SDS011;10614;53.198;6.570;2022-11-20T11:19:58;8.52;;;3.40;;
20908;SDS011;10614;53.198;6.570;2022-11-20T11:22:16;9.30;;;3.75;;
20908;SDS011;10614;53.198;6.570;2022-11-20T11:24:23;8.05;;;3.40;;
20908;SDS011;10614;53.198;6.570;2022-11-20T11:26:26;7.85;;;3.17;;
20908;SDS011;10614;53.198;6.570;2022-11-20T11:28:29;8.57;;;3.92;;
20908;SDS011;10614;53.198;6.570;2022-11-20T11:30:41;9.18;;;3.50;;
20908;SDS011;10614;53.198;6.570;2022-11-20T11:32:44;7.40;;;3.53;;
20908;SDS011;10614;53.198;6.570;2022-11-20T11:34:58;8.65;;;3.80;;
20908;SDS011;10614;53.198;6.570;2022-11-20T11:37:00;8.90;;;4.03;;
20908;SDS011;10614;53.198;6.570;2022-11-20T11:39:06;7.93;;;3.55;;
20908;SDS011;10614;53.198;6.570;2022-11-20T11:41:16;7.53;;;3.75;;
20908;SDS011;10614;53.198;6.570;2022-11-20T11:43:21;9.90;;;3.97;;
20908;SDS011;10614;53.198;6.570;2022-11-20T11:45:50;6.88;;;3.20;;
20908;SDS011;10614;53.198;6.570;2022-11-20T11:47:53;8.13;;;3.65;;
20908;SDS011;10614;53.198;6.570;2022-11-20T11:50:13;7.10;;;3.63;;
20908;SDS011;10614;53.198;6.570;2022-11-20T11:52:17;10.38;;;3.50;;
20908;SDS011;10614;53.198;6.570;2022-11-20T11:54:25;8.10;;;3.30;;
20908;SDS011;10614;53.198;6.570;2022-11-20T11:56:32;9.30;;;4.22;;
20908;SDS011;10614;53.198;6.570;2022-11-20T11:58:38;7.40;;;3.40;;
20908;SDS011;10614;53.198;6.570;2022-11-20T12:00:48;8.95;;;3.38;;
20908;SDS011;10614;53.198;6.570;2022-11-20T12:02:57;6.78;;;2.80;;
20908;SDS011;10614;53.198;6.570;2022-11-20T12:05:09;5.65;;;2.75;;
20908;SDS011;10614;53.198;6.570;2022-11-20T12:07:19;9.45;;;3.60;;
20908;SDS011;10614;53.198;6.570;2022-11-20T12:09:34;7.95;;;2.90;;
20908;SDS011;10614;53.198;6.570;2022-11-20T12:11:42;8.13;;;3.03;;
20908;SDS011;10614;53.198;6.570;2022-11-20T12:13:48;9.55;;;3.80;;
20908;SDS011;10614;53.198;6.570;2022-11-20T12:15:55;7.05;;;3.25;;
20908;SDS011;10614;53.198;6.570;2022-11-20T12:17:56;8.82;;;3.55;;
20908;SDS011;10614;53.198;6.570;2022-11-20T12:19:58;8.75;;;3.50;;
20908;SDS011;10614;53.198;6.570;2022-11-20T12:22:02;6.07;;;3.08;;
20908;SDS011;10614;53.198;6.570;2022-11-20T12:24:18;8.57;;;3.72;;